createdAt,value
2019-05-07T00:02:04.755Z,9.00
2019-05-07T00:12:06.698Z,9.10
2019-05-07T00:22:08.774Z,9.10
2019-05-07T00:32:12.104Z,9.20
2019-05-07T00:42:14.308Z,9.20
2019-05-07T00:52:16.304Z,9.20
2019-05-07T01:02:18.307Z,9.20
2019-05-07T01:12:22.218Z,9.20
2019-05-07T01:22:24.047Z,9.10
2019-05-07T01:32:25.954Z,9.10
2019-05-07T01:42:27.954Z,9.10
2019-05-07T01:52:29.987Z,9.10
2019-05-07T02:02:33.122Z,9.10
2019-05-07T02:12:35.122Z,9.10
2019-05-07T02:22:37.098Z,9.10
2019-05-07T02:32:39.076Z,9.00
2019-05-07T02:42:44.078Z,9.00
2019-05-07T02:52:44.894Z,9.00
2019-05-07T03:02:46.865Z,9.00
2019-05-07T03:12:48.905Z,9.00
2019-05-07T03:22:53.669Z,8.90
2019-05-07T03:32:56.171Z,9.00
2019-05-07T03:43:01.608Z,9.00
2019-05-07T03:53:03.009Z,9.00
2019-05-07T04:03:04.648Z,9.00
2019-05-07T04:13:06.632Z,9.00
2019-05-07T04:23:08.635Z,9.00
2019-05-07T04:33:13.068Z,9.10
2019-05-07T04:43:14.393Z,9.00
2019-05-07T04:53:16.448Z,9.00
2019-05-07T05:03:18.493Z,9.00
2019-05-07T05:13:23.244Z,9.10
2019-05-07T05:23:24.351Z,9.40
2019-05-07T05:33:26.364Z,9.60
2019-05-07T05:43:28.325Z,9.80
2019-05-07T05:53:32.546Z,9.90
2019-05-07T06:03:34.146Z,10.00
2019-05-07T06:13:36.146Z,10.00
2019-05-07T06:23:38.135Z,10.00
2019-05-07T06:33:40.063Z,10.10
2019-05-07T06:43:42.272Z,10.30
2019-05-07T06:53:44.350Z,10.60
2019-05-07T07:03:46.323Z,10.90
2019-05-07T07:13:48.774Z,11.10
2019-05-07T07:23:52.415Z,11.30
2019-05-07T07:33:54.416Z,11.50
2019-05-07T07:43:56.418Z,11.70
2019-05-07T07:53:58.388Z,11.90
2019-05-07T08:04:02.752Z,12.10
2019-05-07T08:14:05.052Z,12.60
2019-05-07T08:24:06.442Z,12.70
2019-05-07T08:34:08.534Z,13.20
2019-05-07T08:44:14.537Z,13.50
2019-05-07T08:54:14.353Z,13.40
2019-05-07T09:04:16.361Z,13.60
2019-05-07T09:14:18.375Z,14.10
2019-05-07T09:24:22.193Z,14.60
2019-05-07T09:34:24.119Z,14.90
2019-05-07T09:44:26.155Z,15.60
2019-05-07T09:54:28.316Z,15.70
2019-05-07T10:04:32.587Z,15.10
2019-05-07T10:14:34.399Z,15.40
2019-05-07T10:24:36.467Z,16.20
2019-05-07T10:34:38.825Z,17.40
2019-05-07T10:44:43.170Z,17.90
2019-05-07T10:54:56.868Z,18.30
2019-05-07T11:04:48.678Z,18.80
2019-05-07T11:14:51.702Z,18.60
2019-05-07T11:24:53.752Z,19.10
2019-05-07T11:34:56.509Z,19.50
2019-05-07T11:44:58.652Z,18.60
2019-05-07T11:55:03.013Z,17.90
2019-05-07T12:05:04.585Z,17.60
2019-05-07T12:15:06.652Z,18.90
2019-05-07T12:25:08.611Z,20.40
2019-05-07T12:35:12.751Z,23.80
2019-05-07T12:45:14.872Z,28.10
2019-05-07T12:55:16.868Z,26.80
2019-05-07T13:05:18.828Z,27.20
2019-05-07T13:15:26.977Z,24.10
2019-05-07T13:25:28.184Z,20.70
2019-05-07T13:35:28.591Z,20.40
2019-05-07T13:45:31.771Z,19.20
2019-05-07T13:55:34.687Z,17.90
2019-05-07T14:05:36.838Z,16.80
2019-05-07T14:15:38.807Z,16.00
2019-05-07T14:25:41.916Z,16.20
2019-05-07T14:35:44.034Z,17.00
2019-05-07T14:45:45.987Z,19.20
2019-05-07T14:55:48.003Z,22.20
2019-05-07T15:05:49.932Z,28.10
2019-05-07T15:15:52.519Z,27.80
2019-05-07T15:25:55.912Z,24.90
2019-05-07T15:35:57.891Z,23.10
2019-05-07T15:46:01.837Z,22.40
2019-05-07T15:56:03.847Z,22.00
2019-05-07T16:06:06.157Z,21.10
2019-05-07T16:16:07.519Z,20.70
2019-05-07T16:26:09.484Z,20.20
2019-05-07T16:36:12.604Z,19.70
2019-05-07T16:46:16.467Z,19.20
2019-05-07T16:56:18.473Z,18.30
2019-05-07T17:06:24.770Z,17.60
2019-05-07T17:16:24.286Z,17.10
2019-05-07T17:26:26.339Z,16.60
2019-05-07T17:36:28.315Z,16.20
2019-05-07T17:46:32.292Z,16.00
2019-05-07T17:56:34.087Z,15.80
2019-05-07T18:06:36.074Z,15.40
2019-05-07T18:16:38.067Z,15.10
2019-05-07T18:26:42.176Z,14.80
2019-05-07T18:36:44.139Z,14.50
2019-05-07T18:46:46.135Z,14.30
2019-05-07T18:56:48.101Z,14.00
2019-05-07T19:06:51.728Z,13.70
2019-05-07T19:16:53.976Z,13.40
2019-05-07T19:26:55.931Z,13.10
2019-05-07T19:36:57.978Z,12.90
2019-05-07T19:47:01.946Z,12.70
2019-05-07T19:57:03.754Z,12.60
2019-05-07T20:07:05.844Z,12.50
2019-05-07T20:17:07.916Z,12.50
2019-05-07T20:27:09.927Z,12.40
2019-05-07T20:37:12.936Z,12.30
2019-05-07T20:47:15.170Z,12.20
2019-05-07T20:57:17.136Z,12.10
2019-05-07T21:07:19.216Z,12.00
2019-05-07T21:17:22.694Z,11.80
2019-05-07T21:27:24.947Z,11.60
2019-05-07T21:37:26.886Z,11.60
2019-05-07T21:47:28.875Z,11.50
2019-05-07T21:57:32.935Z,11.40
2019-05-07T22:07:34.606Z,11.40
2019-05-07T22:17:36.607Z,11.40
2019-05-07T22:27:38.573Z,11.50
2019-05-07T22:37:40.620Z,11.50
2019-05-07T22:47:42.759Z,11.50
2019-05-07T22:57:44.755Z,11.50
2019-05-07T23:07:46.851Z,11.50
2019-05-07T23:17:50.923Z,11.50
2019-05-07T23:27:52.874Z,11.40
2019-05-07T23:37:54.838Z,11.40
2019-05-07T23:47:56.907Z,11.30
2019-05-07T23:57:58.846Z,11.30
